sensor_id;sensor_type;location;lat;lon;timestamp;P1;durP1;ratioP1;P2;durP2;ratioP2
68923;SDS011;55961;52.156;20.942;2023-02-01T00:01:36;6.88;;;2.58;;
68923;SDS011;55961;52.156;20.942;2023-02-01T00:04:02;10.97;;;4.87;;
68923;SDS011;55961;52.156;20.942;2023-02-01T00:06:28;8.93;;;3.85;;
68923;SDS011;55961;52.156;20.942;2023-02-01T00:08:55;6.85;;;3.20;;
68923;SDS011;55961;52.156;20.942;2023-02-01T00:11:21;9.00;;;3.20;;
68923;SDS011;55961;52.156;20.942;2023-02-01T00:13:48;7.70;;;3.67;;
68923;SDS011;55961;52.156;20.942;2023-02-01T00:16:15;6.90;;;2.20;;
68923;SDS011;55961;52.156;20.942;2023-02-01T00:18:47;5.43;;;2.90;;
68923;SDS011;55961;52.156;20.942;2023-02-01T00:21:15;8.07;;;2.88;;
68923;SDS011;55961;52.156;20.942;2023-02-01T00:23:43;11.10;;;2.90;;
68923;SDS011;55961;52.156;20.942;2023-02-01T00:26:19;6.22;;;2.50;;
68923;SDS011;55961;52.156;20.942;2023-02-01T00:28:48;5.53;;;2.20;;
68923;SDS011;55961;52.156;20.942;2023-02-01T00:31:14;4.05;;;1.20;;
68923;SDS011;55961;52.156;20.942;2023-02-01T00:33:40;5.38;;;1.60;;
68923;SDS011;55961;52.156;20.942;2023-02-01T00:36:06;4.37;;;1.43;;
68923;SDS011;55961;52.156;20.942;2023-02-01T00:38:34;6.25;;;2.95;;
68923;SDS011;55961;52.156;20.942;2023-02-01T00:41:20;6.32;;;2.15;;
68923;SDS011;55961;52.156;20.942;2023-02-01T00:43:47;6.88;;;2.80;;
68923;SDS011;55961;52.156;20.942;2023-02-01T00:46:14;6.37;;;1.97;;
68923;SDS011;55961;52.156;20.942;2023-02-01T00:48:42;4.45;;;1.60;;
68923;SDS011;55961;52.156;20.942;2023-02-01T00:51:09;7.68;;;2.35;;
68923;SDS011;55961;52.156;20.942;2023-02-01T00:53:40;5.82;;;1.63;;
68923;SDS011;55961;52.156;20.942;2023-02-01T00:56:06;4.70;;;1.98;;
68923;SDS011;55961;52.156;20.942;2023-02-01T00:58:33;5.40;;;1.73;;
68923;SDS011;55961;52.156;20.942;2023-02-01T01:03:37;10.80;;;2.28;;
68923;SDS011;55961;52.156;20.942;2023-02-01T01:06:06;7.85;;;1.20;;
68923;SDS011;55961;52.156;20.942;2023-02-01T01:08:37;7.43;;;1.50;;
68923;SDS011;55961;52.156;20.942;2023-02-01T01:11:11;6.97;;;1.57;;
68923;SDS011;55961;52.156;20.942;2023-02-01T01:13:40;3.30;;;0.77;;
68923;SDS011;55961;52.156;20.942;2023-02-01T01:16:06;4.60;;;0.85;;
68923;SDS011;55961;52.156;20.942;2023-02-01T01:18:35;5.63;;;1.25;;
68923;SDS011;55961;52.156;20.942;2023-02-01T01:21:01;4.13;;;0.63;;
68923;SDS011;55961;52.156;20.942;2023-02-01T01:23:29;4.30;;;0.93;;
68923;SDS011;55961;52.156;20.942;2023-02-01T01:25:55;10.02;;;1.55;;
68923;SDS011;55961;52.156;20.942;2023-02-01T01:28:21;8.98;;;1.00;;
68923;SDS011;55961;52.156;20.942;2023-02-01T01:30:47;3.75;;;0.57;;
68923;SDS011;55961;52.156;20.942;2023-02-01T01:33:13;3.07;;;0.40;;
68923;SDS011;55961;52.156;20.942;2023-02-01T01:35:39;5.32;;;0.52;;
68923;SDS011;55961;52.156;20.942;2023-02-01T01:38:05;6.97;;;0.57;;
68923;SDS011;55961;52.156;20.942;2023-02-01T01:40:31;4.63;;;0.70;;
68923;SDS011;55961;52.156;20.942;2023-02-01T01:42:57;3.45;;;0.57;;
68923;SDS011;55961;52.156;20.942;2023-02-01T01:45:30;4.32;;;0.77;;
68923;SDS011;55961;52.156;20.942;2023-02-01T01:47:59;2.42;;;0.50;;
68923;SDS011;55961;52.156;20.942;2023-02-01T01:50:47;5.45;;;1.13;;
68923;SDS011;55961;52.156;20.942;2023-02-01T01:53:24;3.73;;;0.50;;
68923;SDS011;55961;52.156;20.942;2023-02-01T01:55:56;4.65;;;0.45;;
68923;SDS011;55961;52.156;20.942;2023-02-01T01:58:24;4.93;;;0.93;;
68923;SDS011;55961;52.156;20.942;2023-02-01T02:00:53;3.47;;;0.50;;
68923;SDS011;55961;52.156;20.942;2023-02-01T02:03:20;6.25;;;1.02;;
68923;SDS011;55961;52.156;20.942;2023-02-01T02:05:53;2.07;;;0.43;;
68923;SDS011;55961;52.156;20.942;2023-02-01T02:08:23;5.13;;;1.00;;
68923;SDS011;55961;52.156;20.942;2023-02-01T02:10:51;5.78;;;0.93;;
68923;SDS011;55961;52.156;20.942;2023-02-01T02:13:33;4.72;;;0.47;;
68923;SDS011;55961;52.156;20.942;2023-02-01T02:18:45;5.17;;;0.87;;
68923;SDS011;55961;52.156;20.942;2023-02-01T02:27:01;6.68;;;0.90;;
68923;SDS011;55961;52.156;20.942;2023-02-01T02:44:24;5.72;;;0.70;;
68923;SDS011;55961;52.156;20.942;2023-02-01T02:48:09;8.37;;;1.70;;
68923;SDS011;55961;52.156;20.942;2023-02-01T02:50:15;3.90;;;0.52;;
68923;SDS011;55961;52.156;20.942;2023-02-01T02:53:15;5.88;;;0.80;;
68923;SDS011;55961;52.156;20.942;2023-02-01T02:56:06;12.32;;;1.15;;
68923;SDS011;55961;52.156;20.942;2023-02-01T02:58:53;6.20;;;1.02;;
68923;SDS011;55961;52.156;20.942;2023-02-01T03:01:39;6.93;;;0.80;;
68923;SDS011;55961;52.156;20.942;2023-02-01T03:04:24;7.68;;;1.08;;
68923;SDS011;55961;52.156;20.942;2023-02-01T03:06:51;10.15;;;1.02;;
68923;SDS011;55961;52.156;20.942;2023-02-01T03:11:50;9.63;;;1.07;;
68923;SDS011;55961;52.156;20.942;2023-02-01T03:14:40;10.23;;;0.82;;
68923;SDS011;55961;52.156;20.942;2023-02-01T03:17:13;9.43;;;1.00;;
68923;SDS011;55961;52.156;20.942;2023-02-01T03:19:43;4.65;;;0.70;;
68923;SDS011;55961;52.156;20.942;2023-02-01T03:22:20;4.28;;;0.52;;
68923;SDS011;55961;52.156;20.942;2023-02-01T03:24:50;5.03;;;0.63;;
68923;SDS011;55961;52.156;20.942;2023-02-01T03:27:24;10.15;;;0.93;;
68923;SDS011;55961;52.156;20.942;2023-02-01T03:30:09;3.92;;;0.82;;
68923;SDS011;55961;52.156;20.942;2023-02-01T03:32:47;6.43;;;0.77;;
68923;SDS011;55961;52.156;20.942;2023-02-01T03:38:18;8.03;;;1.53;;
68923;SDS011;55961;52.156;20.942;2023-02-01T03:40:46;3.15;;;0.40;;
68923;SDS011;55961;52.156;20.942;2023-02-01T03:43:29;5.95;;;0.95;;
68923;SDS011;55961;52.156;20.942;2023-02-01T03:46:00;7.95;;;0.95;;
68923;SDS011;55961;52.156;20.942;2023-02-01T03:48:29;4.53;;;0.43;;
68923;SDS011;55961;52.156;20.942;2023-02-01T03:50:56;8.47;;;1.37;;
68923;SDS011;55961;52.156;20.942;2023-02-01T03:53:25;6.88;;;1.30;;
68923;SDS011;55961;52.156;20.942;2023-02-01T03:55:53;6.85;;;0.90;;
68923;SDS011;55961;52.156;20.942;2023-02-01T03:58:20;6.28;;;1.05;;
68923;SDS011;55961;52.156;20.942;2023-02-01T04:00:54;4.88;;;1.02;;
68923;SDS011;55961;52.156;20.942;2023-02-01T04:03:22;9.63;;;1.17;;
68923;SDS011;55961;52.156;20.942;2023-02-01T04:05:52;10.55;;;1.05;;
68923;SDS011;55961;52.156;20.942;2023-02-01T04:08:19;9.02;;;0.98;;
68923;SDS011;55961;52.156;20.942;2023-02-01T04:10:45;6.72;;;0.82;;
68923;SDS011;55961;52.156;20.942;2023-02-01T04:13:11;7.85;;;0.85;;
68923;SDS011;55961;52.156;20.942;2023-02-01T04:15:38;8.90;;;1.20;;
68923;SDS011;55961;52.156;20.942;2023-02-01T04:18:04;6.82;;;1.20;;
68923;SDS011;55961;52.156;20.942;2023-02-01T04:20:30;9.88;;;1.13;;
68923;SDS011;55961;52.156;20.942;2023-02-01T04:22:57;6.25;;;0.43;;
68923;SDS011;55961;52.156;20.942;2023-02-01T04:25:23;8.30;;;0.80;;
68923;SDS011;55961;52.156;20.942;2023-02-01T04:27:49;5.53;;;0.50;;
68923;SDS011;55961;52.156;20.942;2023-02-01T04:30:15;6.47;;;0.68;;
68923;SDS011;55961;52.156;20.942;2023-02-01T04:32:41;7.35;;;1.00;;
68923;SDS011;55961;52.156;20.942;2023-02-01T04:35:07;5.10;;;0.70;;
68923;SDS011;55961;52.156;20.942;2023-02-01T04:37:34;7.22;;;0.88;;
68923;SDS011;55961;52.156;20.942;2023-02-01T04:40:00;13.48;;;1.08;;
68923;SDS011;55961;52.156;20.942;2023-02-01T04:42:26;9.00;;;0.85;;
68923;SDS011;55961;52.156;20.942;2023-02-01T04:44:52;2.53;;;0.40;;
68923;SDS011;55961;52.156;20.942;2023-02-01T04:47:18;8.48;;;1.10;;
68923;SDS011;55961;52.156;20.942;2023-02-01T04:49:44;5.07;;;0.90;;
68923;SDS011;55961;52.156;20.942;2023-02-01T04:52:09;2.80;;;0.50;;
68923;SDS011;55961;52.156;20.942;2023-02-01T04:54:35;8.15;;;1.30;;
68923;SDS011;55961;52.156;20.942;2023-02-01T04:57:02;6.45;;;1.17;;
68923;SDS011;55961;52.156;20.942;2023-02-01T04:59:28;5.95;;;0.80;;
68923;SDS011;55961;52.156;20.942;2023-02-01T05:01:54;5.97;;;0.93;;
68923;SDS011;55961;52.156;20.942;2023-02-01T05:04:20;8.05;;;0.90;;
68923;SDS011;55961;52.156;20.942;2023-02-01T05:06:46;13.82;;;1.55;;
68923;SDS011;55961;52.156;20.942;2023-02-01T05:09:12;8.60;;;0.90;;
68923;SDS011;55961;52.156;20.942;2023-02-01T05:11:38;6.73;;;0.63;;
68923;SDS011;55961;52.156;20.942;2023-02-01T05:14:22;8.93;;;0.95;;
68923;SDS011;55961;52.156;20.942;2023-02-01T05:16:48;11.00;;;1.10;;
68923;SDS011;55961;52.156;20.942;2023-02-01T05:19:14;8.07;;;1.15;;
68923;SDS011;55961;52.156;20.942;2023-02-01T05:21:40;9.57;;;1.55;;
68923;SDS011;55961;52.156;20.942;2023-02-01T05:24:07;5.37;;;0.87;;
68923;SDS011;55961;52.156;20.942;2023-02-01T05:26:42;7.03;;;1.00;;
68923;SDS011;55961;52.156;20.942;2023-02-01T05:29:09;4.18;;;0.70;;
68923;SDS011;55961;52.156;20.942;2023-02-01T05:31:35;9.48;;;0.90;;
68923;SDS011;55961;52.156;20.942;2023-02-01T05:34:01;7.90;;;0.98;;
68923;SDS011;55961;52.156;20.942;2023-02-01T05:36:27;7.70;;;1.20;;
68923;SDS011;55961;52.156;20.942;2023-02-01T05:38:53;5.18;;;1.20;;
68923;SDS011;55961;52.156;20.942;2023-02-01T05:41:19;5.40;;;0.68;;
68923;SDS011;55961;52.156;20.942;2023-02-01T05:43:45;6.55;;;0.88;;
68923;SDS011;55961;52.156;20.942;2023-02-01T05:46:11;5.53;;;0.47;;
68923;SDS011;55961;52.156;20.942;2023-02-01T05:48:41;6.55;;;0.85;;
68923;SDS011;55961;52.156;20.942;2023-02-01T05:51:08;11.07;;;1.30;;
68923;SDS011;55961;52.156;20.942;2023-02-01T05:53:35;7.25;;;0.60;;
68923;SDS011;55961;52.156;20.942;2023-02-01T05:56:00;5.00;;;0.73;;
68923;SDS011;55961;52.156;20.942;2023-02-01T05:58:27;7.45;;;0.98;;
68923;SDS011;55961;52.156;20.942;2023-02-01T06:00:53;6.88;;;0.73;;
68923;SDS011;55961;52.156;20.942;2023-02-01T06:03:19;9.30;;;1.08;;
68923;SDS011;55961;52.156;20.942;2023-02-01T06:05:45;5.63;;;1.17;;
68923;SDS011;55961;52.156;20.942;2023-02-01T06:08:12;8.02;;;1.80;;
68923;SDS011;55961;52.156;20.942;2023-02-01T06:10:38;9.90;;;1.13;;
68923;SDS011;55961;52.156;20.942;2023-02-01T06:13:04;4.90;;;1.00;;
68923;SDS011;55961;52.156;20.942;2023-02-01T06:15:30;8.60;;;1.27;;
68923;SDS011;55961;52.156;20.942;2023-02-01T06:17:57;6.72;;;0.93;;
68923;SDS011;55961;52.156;20.942;2023-02-01T06:20:23;9.73;;;1.38;;
68923;SDS011;55961;52.156;20.942;2023-02-01T06:22:49;12.00;;;2.03;;
68923;SDS011;55961;52.156;20.942;2023-02-01T06:25:17;10.88;;;1.10;;
68923;SDS011;55961;52.156;20.942;2023-02-01T06:27:44;8.07;;;0.70;;
68923;SDS011;55961;52.156;20.942;2023-02-01T06:30:10;6.00;;;0.60;;
68923;SDS011;55961;52.156;20.942;2023-02-01T06:32:40;3.60;;;0.33;;
68923;SDS011;55961;52.156;20.942;2023-02-01T06:35:07;6.68;;;1.52;;
68923;SDS011;55961;52.156;20.942;2023-02-01T06:37:36;5.13;;;0.82;;
68923;SDS011;55961;52.156;20.942;2023-02-01T06:40:03;8.13;;;1.08;;
68923;SDS011;55961;52.156;20.942;2023-02-01T06:42:29;12.32;;;1.38;;
68923;SDS011;55961;52.156;20.942;2023-02-01T06:44:55;10.50;;;1.10;;
68923;SDS011;55961;52.156;20.942;2023-02-01T06:47:21;9.57;;;1.00;;
68923;SDS011;55961;52.156;20.942;2023-02-01T06:49:47;7.40;;;1.40;;
68923;SDS011;55961;52.156;20.942;2023-02-01T06:52:13;9.40;;;1.02;;
68923;SDS011;55961;52.156;20.942;2023-02-01T06:54:38;6.10;;;0.90;;
68923;SDS011;55961;52.156;20.942;2023-02-01T06:57:04;8.32;;;0.95;;
68923;SDS011;55961;52.156;20.942;2023-02-01T06:59:30;6.90;;;1.57;;
68923;SDS011;55961;52.156;20.942;2023-02-01T07:01:56;7.40;;;1.15;;
68923;SDS011;55961;52.156;20.942;2023-02-01T07:04:22;7.47;;;0.93;;
68923;SDS011;55961;52.156;20.942;2023-02-01T07:06:48;9.00;;;1.23;;
68923;SDS011;55961;52.156;20.942;2023-02-01T07:09:14;6.93;;;0.93;;
68923;SDS011;55961;52.156;20.942;2023-02-01T07:11:40;9.88;;;1.02;;
68923;SDS011;55961;52.156;20.942;2023-02-01T07:14:08;11.07;;;1.10;;
68923;SDS011;55961;52.156;20.942;2023-02-01T07:16:35;6.68;;;0.95;;
68923;SDS011;55961;52.156;20.942;2023-02-01T07:19:01;12.07;;;1.20;;
68923;SDS011;55961;52.156;20.942;2023-02-01T07:21:28;7.20;;;1.20;;
68923;SDS011;55961;52.156;20.942;2023-02-01T07:23:54;9.17;;;1.23;;
68923;SDS011;55961;52.156;20.942;2023-02-01T07:26:20;8.43;;;1.10;;
68923;SDS011;55961;52.156;20.942;2023-02-01T07:28:47;7.07;;;1.55;;
68923;SDS011;55961;52.156;20.942;2023-02-01T07:31:14;8.15;;;1.05;;
68923;SDS011;55961;52.156;20.942;2023-02-01T07:33:43;12.48;;;1.25;;
68923;SDS011;55961;52.156;20.942;2023-02-01T07:36:15;7.43;;;1.20;;
68923;SDS011;55961;52.156;20.942;2023-02-01T07:38:42;14.25;;;2.00;;
68923;SDS011;55961;52.156;20.942;2023-02-01T07:41:09;7.93;;;1.50;;
68923;SDS011;55961;52.156;20.942;2023-02-01T07:43:35;8.57;;;1.10;;
68923;SDS011;55961;52.156;20.942;2023-02-01T07:46:02;10.02;;;1.85;;
68923;SDS011;55961;52.156;20.942;2023-02-01T07:48:29;10.20;;;1.73;;
68923;SDS011;55961;52.156;20.942;2023-02-01T07:51:07;11.68;;;1.92;;
68923;SDS011;55961;52.156;20.942;2023-02-01T07:53:35;10.52;;;1.50;;
68923;SDS011;55961;52.156;20.942;2023-02-01T07:56:02;15.00;;;1.73;;
68923;SDS011;55961;52.156;20.942;2023-02-01T07:58:28;7.10;;;0.85;;
68923;SDS011;55961;52.156;20.942;2023-02-01T08:00:55;11.90;;;1.50;;
68923;SDS011;55961;52.156;20.942;2023-02-01T08:03:39;14.52;;;1.48;;
68923;SDS011;55961;52.156;20.942;2023-02-01T08:06:05;12.20;;;2.05;;
68923;SDS011;55961;52.156;20.942;2023-02-01T08:08:32;9.50;;;1.48;;
68923;SDS011;55961;52.156;20.942;2023-02-01T08:11:01;8.43;;;1.07;;
68923;SDS011;55961;52.156;20.942;2023-02-01T08:13:28;11.65;;;1.73;;
68923;SDS011;55961;52.156;20.942;2023-02-01T08:15:58;16.60;;;1.38;;
68923;SDS011;55961;52.156;20.942;2023-02-01T08:18:25;12.93;;;1.58;;
68923;SDS011;55961;52.156;20.942;2023-02-01T08:20:51;8.38;;;1.10;;
68923;SDS011;55961;52.156;20.942;2023-02-01T08:23:17;8.50;;;1.77;;
68923;SDS011;55961;52.156;20.942;2023-02-01T08:25:43;9.48;;;2.03;;
68923;SDS011;55961;52.156;20.942;2023-02-01T08:28:09;10.88;;;1.65;;
68923;SDS011;55961;52.156;20.942;2023-02-01T08:30:36;9.63;;;1.38;;
68923;SDS011;55961;52.156;20.942;2023-02-01T08:33:03;10.37;;;1.57;;
68923;SDS011;55961;52.156;20.942;2023-02-01T08:35:32;8.95;;;1.35;;
68923;SDS011;55961;52.156;20.942;2023-02-01T08:37:59;8.27;;;1.30;;
68923;SDS011;55961;52.156;20.942;2023-02-01T08:40:25;11.98;;;1.10;;
68923;SDS011;55961;52.156;20.942;2023-02-01T08:42:51;8.83;;;1.60;;
68923;SDS011;55961;52.156;20.942;2023-02-01T08:45:18;9.40;;;2.35;;
68923;SDS011;55961;52.156;20.942;2023-02-01T08:47:49;12.75;;;1.80;;
68923;SDS011;55961;52.156;20.942;2023-02-01T08:50:19;9.73;;;0.90;;
68923;SDS011;55961;52.156;20.942;2023-02-01T08:52:45;8.60;;;1.25;;
68923;SDS011;55961;52.156;20.942;2023-02-01T08:55:12;5.53;;;0.73;;
68923;SDS011;55961;52.156;20.942;2023-02-01T08:57:39;8.50;;;1.48;;
68923;SDS011;55961;52.156;20.942;2023-02-01T09:00:07;4.72;;;1.10;;
68923;SDS011;55961;52.156;20.942;2023-02-01T09:02:35;8.98;;;1.25;;
68923;SDS011;55961;52.156;20.942;2023-02-01T09:05:02;6.20;;;1.25;;
68923;SDS011;55961;52.156;20.942;2023-02-01T09:07:29;9.70;;;1.53;;
68923;SDS011;55961;52.156;20.942;2023-02-01T09:09:55;5.68;;;1.42;;
68923;SDS011;55961;52.156;20.942;2023-02-01T09:12:22;11.57;;;2.08;;
68923;SDS011;55961;52.156;20.942;2023-02-01T09:14:48;9.52;;;1.60;;
68923;SDS011;55961;52.156;20.942;2023-02-01T09:17:14;5.67;;;1.20;;
68923;SDS011;55961;52.156;20.942;2023-02-01T09:19:40;7.70;;;1.48;;
68923;SDS011;55961;52.156;20.942;2023-02-01T09:22:05;5.82;;;1.00;;
68923;SDS011;55961;52.156;20.942;2023-02-01T09:24:31;8.37;;;1.77;;
68923;SDS011;55961;52.156;20.942;2023-02-01T09:26:57;15.13;;;2.95;;
68923;SDS011;55961;52.156;20.942;2023-02-01T09:29:23;12.07;;;1.90;;
68923;SDS011;55961;52.156;20.942;2023-02-01T09:31:49;11.27;;;1.35;;
68923;SDS011;55961;52.156;20.942;2023-02-01T09:34:15;7.50;;;1.57;;
68923;SDS011;55961;52.156;20.942;2023-02-01T09:36:41;7.07;;;1.50;;
68923;SDS011;55961;52.156;20.942;2023-02-01T09:39:07;6.43;;;1.40;;
68923;SDS011;55961;52.156;20.942;2023-02-01T09:41:51;8.93;;;1.83;;
68923;SDS011;55961;52.156;20.942;2023-02-01T09:47:15;10.32;;;1.50;;
68923;SDS011;55961;52.156;20.942;2023-02-01T09:49:57;6.85;;;1.25;;
68923;SDS011;55961;52.156;20.942;2023-02-01T09:52:36;10.93;;;1.10;;
68923;SDS011;55961;52.156;20.942;2023-02-01T09:58:16;12.13;;;1.50;;
68923;SDS011;55961;52.156;20.942;2023-02-01T10:01:02;16.60;;;2.78;;
68923;SDS011;55961;52.156;20.942;2023-02-01T10:03:31;7.32;;;1.45;;
68923;SDS011;55961;52.156;20.942;2023-02-01T10:20:20;7.50;;;1.35;;
68923;SDS011;55961;52.156;20.942;2023-02-01T10:23:00;8.37;;;1.60;;
68923;SDS011;55961;52.156;20.942;2023-02-01T10:25:33;9.95;;;1.08;;
68923;SDS011;55961;52.156;20.942;2023-02-01T10:28:06;7.00;;;1.75;;
68923;SDS011;55961;52.156;20.942;2023-02-01T10:30:42;12.32;;;1.40;;
68923;SDS011;55961;52.156;20.942;2023-02-01T10:33:15;8.32;;;1.40;;
68923;SDS011;55961;52.156;20.942;2023-02-01T10:35:44;11.77;;;1.90;;
68923;SDS011;55961;52.156;20.942;2023-02-01T10:38:29;16.95;;;2.47;;
68923;SDS011;55961;52.156;20.942;2023-02-01T10:41:01;17.13;;;4.18;;
68923;SDS011;55961;52.156;20.942;2023-02-01T10:43:39;12.02;;;1.65;;
68923;SDS011;55961;52.156;20.942;2023-02-01T10:46:06;8.60;;;1.27;;
68923;SDS011;55961;52.156;20.942;2023-02-01T10:48:33;9.60;;;1.83;;
68923;SDS011;55961;52.156;20.942;2023-02-01T10:51:00;13.25;;;2.25;;
68923;SDS011;55961;52.156;20.942;2023-02-01T10:56:07;17.65;;;2.55;;
68923;SDS011;55961;52.156;20.942;2023-02-01T10:58:35;14.85;;;2.25;;
68923;SDS011;55961;52.156;20.942;2023-02-01T11:01:07;9.87;;;2.47;;
68923;SDS011;55961;52.156;20.942;2023-02-01T11:06:21;9.60;;;1.88;;
68923;SDS011;55961;52.156;20.942;2023-02-01T11:08:56;12.60;;;2.10;;
68923;SDS011;55961;52.156;20.942;2023-02-01T11:11:24;10.88;;;2.25;;
68923;SDS011;55961;52.156;20.942;2023-02-01T11:14:34;9.03;;;1.53;;
68923;SDS011;55961;52.156;20.942;2023-02-01T11:16:47;8.20;;;2.17;;
68923;SDS011;55961;52.156;20.942;2023-02-01T11:19:15;12.63;;;1.98;;
68923;SDS011;55961;52.156;20.942;2023-02-01T11:21:43;7.95;;;1.20;;
68923;SDS011;55961;52.156;20.942;2023-02-01T11:24:32;11.15;;;1.85;;
68923;SDS011;55961;52.156;20.942;2023-02-01T11:27:03;8.07;;;1.80;;
68923;SDS011;55961;52.156;20.942;2023-02-01T11:29:38;7.22;;;1.90;;
68923;SDS011;55961;52.156;20.942;2023-02-01T11:32:08;9.07;;;1.50;;
68923;SDS011;55961;52.156;20.942;2023-02-01T11:34:37;8.52;;;1.95;;
68923;SDS011;55961;52.156;20.942;2023-02-01T11:37:05;8.02;;;1.17;;
68923;SDS011;55961;52.156;20.942;2023-02-01T11:39:53;7.50;;;1.60;;
68923;SDS011;55961;52.156;20.942;2023-02-01T11:42:23;14.60;;;1.73;;
68923;SDS011;55961;52.156;20.942;2023-02-01T11:44:50;12.80;;;2.38;;
68923;SDS011;55961;52.156;20.942;2023-02-01T11:49:47;13.30;;;2.40;;
68923;SDS011;55961;52.156;20.942;2023-02-01T11:52:18;7.23;;;1.47;;
68923;SDS011;55961;52.156;20.942;2023-02-01T11:54:56;6.05;;;1.60;;
68923;SDS011;55961;52.156;20.942;2023-02-01T12:22:06;14.23;;;2.85;;
68923;SDS011;55961;52.156;20.942;2023-02-01T12:38:43;11.85;;;2.17;;
68923;SDS011;55961;52.156;20.942;2023-02-01T12:47:25;13.43;;;2.10;;
68923;SDS011;55961;52.156;20.942;2023-02-01T13:00:47;19.43;;;4.37;;
68923;SDS011;55961;52.156;20.942;2023-02-01T13:06:22;9.15;;;2.42;;
68923;SDS011;55961;52.156;20.942;2023-02-01T13:09:33;9.98;;;3.28;;
68923;SDS011;55961;52.156;20.942;2023-02-01T13:11:46;11.82;;;3.08;;
68923;SDS011;55961;52.156;20.942;2023-02-01T13:17:04;15.93;;;3.17;;
68923;SDS011;55961;52.156;20.942;2023-02-01T13:25:04;8.13;;;2.03;;
68923;SDS011;55961;52.156;20.942;2023-02-01T13:27:36;20.23;;;2.90;;
68923;SDS011;55961;52.156;20.942;2023-02-01T13:30:17;15.40;;;2.95;;
68923;SDS011;55961;52.156;20.942;2023-02-01T13:33:00;13.43;;;3.17;;
68923;SDS011;55961;52.156;20.942;2023-02-01T13:35:43;9.60;;;1.90;;
68923;SDS011;55961;52.156;20.942;2023-02-01T13:41:27;13.20;;;2.63;;
68923;SDS011;55961;52.156;20.942;2023-02-01T13:44:15;10.25;;;3.45;;
68923;SDS011;55961;52.156;20.942;2023-02-01T13:46:46;9.90;;;2.58;;
68923;SDS011;55961;52.156;20.942;2023-02-01T13:49:20;10.82;;;1.95;;
68923;SDS011;55961;52.156;20.942;2023-02-01T13:51:52;12.85;;;2.95;;
68923;SDS011;55961;52.156;20.942;2023-02-01T13:54:31;10.17;;;1.80;;
68923;SDS011;55961;52.156;20.942;2023-02-01T13:57:02;11.80;;;2.15;;
68923;SDS011;55961;52.156;20.942;2023-02-01T14:08:02;11.10;;;2.93;;
68923;SDS011;55961;52.156;20.942;2023-02-01T14:24:00;7.15;;;2.00;;
68923;SDS011;55961;52.156;20.942;2023-02-01T14:34:16;11.13;;;2.53;;
68923;SDS011;55961;52.156;20.942;2023-02-01T14:36:50;9.77;;;2.58;;
68923;SDS011;55961;52.156;20.942;2023-02-01T14:41:52;7.75;;;2.45;;
68923;SDS011;55961;52.156;20.942;2023-02-01T14:44:24;8.50;;;2.50;;
68923;SDS011;55961;52.156;20.942;2023-02-01T14:52:37;9.32;;;2.75;;
68923;SDS011;55961;52.156;20.942;2023-02-01T14:55:13;10.40;;;2.83;;
68923;SDS011;55961;52.156;20.942;2023-02-01T14:57:44;6.68;;;2.25;;
68923;SDS011;55961;52.156;20.942;2023-02-01T15:02:45;11.75;;;3.83;;
68923;SDS011;55961;52.156;20.942;2023-02-01T15:05:50;17.10;;;5.25;;
68923;SDS011;55961;52.156;20.942;2023-02-01T15:08:13;18.30;;;5.32;;
68923;SDS011;55961;52.156;20.942;2023-02-01T15:10:44;11.73;;;3.22;;
68923;SDS011;55961;52.156;20.942;2023-02-01T15:13:20;15.60;;;3.73;;
68923;SDS011;55961;52.156;20.942;2023-02-01T15:18:40;19.65;;;5.57;;
68923;SDS011;55961;52.156;20.942;2023-02-01T15:21:13;11.77;;;3.80;;
68923;SDS011;55961;52.156;20.942;2023-02-01T15:23:42;12.32;;;4.65;;
68923;SDS011;55961;52.156;20.942;2023-02-01T15:26:07;12.73;;;4.47;;
68923;SDS011;55961;52.156;20.942;2023-02-01T15:28:33;11.02;;;3.88;;
68923;SDS011;55961;52.156;20.942;2023-02-01T15:31:01;12.70;;;4.50;;
68923;SDS011;55961;52.156;20.942;2023-02-01T15:33:29;16.88;;;5.68;;
68923;SDS011;55961;52.156;20.942;2023-02-01T15:38:32;18.83;;;7.63;;
68923;SDS011;55961;52.156;20.942;2023-02-01T15:43:29;13.68;;;4.25;;
68923;SDS011;55961;52.156;20.942;2023-02-01T15:45:58;15.35;;;5.18;;
68923;SDS011;55961;52.156;20.942;2023-02-01T15:48:26;23.60;;;5.90;;
68923;SDS011;55961;52.156;20.942;2023-02-01T15:50:55;17.33;;;5.55;;
68923;SDS011;55961;52.156;20.942;2023-02-01T15:53:22;16.17;;;5.95;;
68923;SDS011;55961;52.156;20.942;2023-02-01T15:55:54;12.65;;;5.10;;
68923;SDS011;55961;52.156;20.942;2023-02-01T15:58:23;11.55;;;4.97;;
68923;SDS011;55961;52.156;20.942;2023-02-01T16:00:51;10.47;;;4.50;;
68923;SDS011;55961;52.156;20.942;2023-02-01T16:03:34;14.32;;;5.00;;
68923;SDS011;55961;52.156;20.942;2023-02-01T16:06:26;10.77;;;4.28;;
68923;SDS011;55961;52.156;20.942;2023-02-01T16:09:00;17.80;;;6.60;;
68923;SDS011;55961;52.156;20.942;2023-02-01T16:11:39;29.85;;;7.03;;
68923;SDS011;55961;52.156;20.942;2023-02-01T16:14:11;17.80;;;6.03;;
68923;SDS011;55961;52.156;20.942;2023-02-01T16:16:37;26.67;;;11.93;;
68923;SDS011;55961;52.156;20.942;2023-02-01T16:19:03;14.05;;;5.65;;
68923;SDS011;55961;52.156;20.942;2023-02-01T16:21:29;16.77;;;7.23;;
68923;SDS011;55961;52.156;20.942;2023-02-01T16:23:55;16.27;;;5.43;;
68923;SDS011;55961;52.156;20.942;2023-02-01T16:26:21;15.65;;;6.32;;
68923;SDS011;55961;52.156;20.942;2023-02-01T16:28:47;14.45;;;5.80;;
68923;SDS011;55961;52.156;20.942;2023-02-01T16:31:14;10.73;;;3.77;;
68923;SDS011;55961;52.156;20.942;2023-02-01T16:33:46;12.95;;;5.85;;
68923;SDS011;55961;52.156;20.942;2023-02-01T16:36:13;12.45;;;4.30;;
68923;SDS011;55961;52.156;20.942;2023-02-01T16:38:39;12.93;;;4.63;;
68923;SDS011;55961;52.156;20.942;2023-02-01T16:41:06;14.90;;;4.53;;
68923;SDS011;55961;52.156;20.942;2023-02-01T16:43:35;14.63;;;4.73;;
68923;SDS011;55961;52.156;20.942;2023-02-01T16:46:01;15.05;;;4.60;;
68923;SDS011;55961;52.156;20.942;2023-02-01T16:48:31;18.13;;;6.20;;
68923;SDS011;55961;52.156;20.942;2023-02-01T16:51:00;11.07;;;4.05;;
68923;SDS011;55961;52.156;20.942;2023-02-01T16:53:29;11.57;;;4.10;;
68923;SDS011;55961;52.156;20.942;2023-02-01T16:55:56;13.88;;;4.13;;
68923;SDS011;55961;52.156;20.942;2023-02-01T16:58:23;10.88;;;4.57;;
68923;SDS011;55961;52.156;20.942;2023-02-01T17:00:50;11.57;;;3.80;;
68923;SDS011;55961;52.156;20.942;2023-02-01T17:03:17;14.85;;;5.60;;
68923;SDS011;55961;52.156;20.942;2023-02-01T17:05:49;17.80;;;5.40;;
68923;SDS011;55961;52.156;20.942;2023-02-01T17:08:18;12.20;;;3.75;;
68923;SDS011;55961;52.156;20.942;2023-02-01T17:10:49;16.92;;;6.22;;
68923;SDS011;55961;52.156;20.942;2023-02-01T17:13:16;15.43;;;5.20;;
68923;SDS011;55961;52.156;20.942;2023-02-01T17:16:03;12.65;;;5.13;;
68923;SDS011;55961;52.156;20.942;2023-02-01T17:18:31;9.60;;;3.53;;
68923;SDS011;55961;52.156;20.942;2023-02-01T17:21:00;13.80;;;4.95;;
68923;SDS011;55961;52.156;20.942;2023-02-01T17:23:27;13.93;;;4.80;;
68923;SDS011;55961;52.156;20.942;2023-02-01T17:25:55;10.48;;;3.42;;
68923;SDS011;55961;52.156;20.942;2023-02-01T17:28:22;13.93;;;5.28;;
68923;SDS011;55961;52.156;20.942;2023-02-01T17:30:48;10.67;;;4.03;;
68923;SDS011;55961;52.156;20.942;2023-02-01T17:35:55;10.45;;;4.22;;
68923;SDS011;55961;52.156;20.942;2023-02-01T17:38:22;9.05;;;4.07;;
68923;SDS011;55961;52.156;20.942;2023-02-01T17:40:48;7.32;;;3.08;;
68923;SDS011;55961;52.156;20.942;2023-02-01T17:43:15;7.43;;;2.83;;
68923;SDS011;55961;52.156;20.942;2023-02-01T17:46:01;12.25;;;4.63;;